Ada, Michigan
Current Conditions -  °F | °C
As of 2:06 AM on Monday 24 Nov 2014 (Local Time) from KGRR Reporting Station
Moderate Rain Moderate Rain  
Wind Chill: 48°   Ceiling: 600
Heat Index: 48°   Visibility: 0.75mi
Dew Point: 47°   Wind: 0mph
Humidity: 96%   Direction: NA
Pressure: 29.04"   Gusts: NA
Location:  42.95°N, 85.49°W
Report Text: KGRR 240706Z AUTO 00000KT 3/4SM R26L/4000VP6000FT RA BR OVC006 09/08 A2904 RMK AO2 P0002 T00890083
Loading
Personal Weather Stations






























Interactive Weather Map New forecast layout! Learn more

10-Day Weather Forecast

Advertisements
Track Severe Weather on mobile